Skagen, Denmark
Current Conditions -  °F | °C
As of 8:20 AM on Sunday 23 Nov 2014 (Local Time) from ESGP Reporting Station
Overcast Overcast  
Wind Chill: 38°   Ceiling: 1800
Heat Index: 43°   Visibility: 6mi
Dew Point: 39°   Wind: 8mph
Humidity: 87%   Direction: 120°ESE
Pressure: 30.24"   Gusts: NA
Location:  57.72°N, 10.58°E
Report Text: ESGP 230720Z 12007KT 9999 OVC018 06/04 Q1024
Loading
Personal Weather Stations






























Interactive Weather Map New forecast layout! Learn more

10-Day Weather Forecast

Advertisements
Track Severe Weather on mobile